createdAt,value
2018-11-22T12:16:09.675Z,103.07
2018-11-22T12:18:38.051Z,104.17
2018-11-22T12:21:06.461Z,109.03
2018-11-22T12:23:34.903Z,102.27
2018-11-22T12:26:03.235Z,105.83
2018-11-22T12:28:31.674Z,108.63
2018-11-22T12:31:06.408Z,103.80
2018-11-22T12:33:28.397Z,106.63
2018-11-22T12:35:57.533Z,122.87
2018-11-22T12:38:25.858Z,115.77
2018-11-22T12:40:54.986Z,115.03
2018-11-22T12:43:23.348Z,115.90
2018-11-22T12:45:52.478Z,112.57
2018-11-22T12:48:20.839Z,113.93
2018-11-22T12:50:49.257Z,111.07
2018-11-22T12:53:17.603Z,113.13
2018-11-22T12:55:46.719Z,117.60
2018-11-22T12:58:15.075Z,120.90
2018-11-22T13:00:43.429Z,110.13
2018-11-22T13:03:11.825Z,113.10
2018-11-22T13:05:40.932Z,122.63
2018-11-22T13:08:10.055Z,118.50
2018-11-22T13:10:38.387Z,104.57
2018-11-22T13:13:07.513Z,104.17
2018-11-22T13:15:35.966Z,113.47
2018-11-22T13:18:04.628Z,106.03
2018-11-22T13:20:32.979Z,110.53
2018-11-22T13:23:01.342Z,124.20
2018-11-22T13:25:29.741Z,116.93
2018-11-22T13:27:58.094Z,117.63
2018-11-22T13:30:26.458Z,123.03
2018-11-22T13:32:55.593Z,111.80
2018-11-22T13:35:23.954Z,122.97
2018-11-22T13:37:52.284Z,112.87
2018-11-22T13:40:20.716Z,115.23
2018-11-22T13:42:49.092Z,122.43
2018-11-22T13:45:17.445Z,121.47
2018-11-22T13:47:46.709Z,115.20
2018-11-22T13:50:15.044Z,122.70
2018-11-22T13:52:43.433Z,128.13
2018-11-22T13:55:11.770Z,134.20
2018-11-22T13:57:40.915Z,134.47
2018-11-22T14:00:09.301Z,121.73
2018-11-22T14:02:37.664Z,145.03
2018-11-22T14:05:11.564Z,128.70
2018-11-22T14:07:35.120Z,133.60
2018-11-22T14:10:04.222Z,139.10
2018-11-22T14:12:32.555Z,122.87
2018-11-22T14:15:00.923Z,140.20
2018-11-22T14:17:29.244Z,123.00
2018-11-22T14:19:58.406Z,126.93
2018-11-22T14:22:26.769Z,123.87
2018-11-22T14:24:55.129Z,131.10
2018-11-22T14:27:23.512Z,135.47
2018-11-22T14:29:51.902Z,136.87
2018-11-22T14:32:20.258Z,136.07
2018-11-22T14:34:48.630Z,126.83
2018-11-22T14:37:16.992Z,137.03
2018-11-22T14:39:45.328Z,134.47
2018-11-22T14:42:13.666Z,143.93
2018-11-22T14:44:42.033Z,137.60
2018-11-22T14:47:11.159Z,137.77
2018-11-22T14:49:39.522Z,139.93
2018-11-22T14:52:07.855Z,137.00
2018-11-22T14:54:36.228Z,134.80
2018-11-22T14:57:04.707Z,128.53
2018-11-22T14:59:33.050Z,128.73
2018-11-22T15:02:01.395Z,128.17
2018-11-22T15:04:29.754Z,137.23
2018-11-22T15:06:58.218Z,137.80
2018-11-22T15:09:26.668Z,129.70
2018-11-22T15:11:55.000Z,120.87
2018-11-22T15:14:23.433Z,136.43
2018-11-22T15:16:51.919Z,133.70
2018-11-22T15:19:20.626Z,134.27
2018-11-22T15:21:49.286Z,139.60
2018-11-22T15:24:17.628Z,136.13
2018-11-22T15:26:45.981Z,140.33
2018-11-22T15:29:14.404Z,139.03
2018-11-22T15:31:42.780Z,139.63
2018-11-22T15:34:11.918Z,135.40
2018-11-22T15:36:40.282Z,165.07
2018-11-22T15:39:08.652Z,160.83
2018-11-22T15:41:37.021Z,150.03
2018-11-22T15:44:06.132Z,147.10
2018-11-22T15:46:34.516Z,145.40
2018-11-22T15:49:02.876Z,143.87
2018-11-22T15:51:31.250Z,127.93
2018-11-22T15:54:00.410Z,133.63
2018-11-22T15:56:28.727Z,128.93
2018-11-22T15:58:57.066Z,124.47
2018-11-22T16:01:25.436Z,126.33
2018-11-22T16:03:53.820Z,119.23
2018-11-22T16:06:22.902Z,129.17
2018-11-22T16:08:51.269Z,127.40
2018-11-22T16:11:19.672Z,130.23
2018-11-22T16:13:48.012Z,129.73
2018-11-22T16:16:16.378Z,121.37
2018-11-22T16:18:45.501Z,113.07
2018-11-22T16:21:13.988Z,116.60
2018-11-22T16:23:42.411Z,117.57
2018-11-22T16:26:10.785Z,122.37
2018-11-22T16:28:39.175Z,130.33
2018-11-22T16:31:08.290Z,120.27
2018-11-22T16:33:36.808Z,118.33
2018-11-22T16:36:05.226Z,126.17
2018-11-22T16:38:33.570Z,121.63
2018-11-22T16:41:01.984Z,119.00
2018-11-22T16:43:30.335Z,116.60
2018-11-22T16:45:58.715Z,114.83
2018-11-22T16:48:27.124Z,111.30
2018-11-22T16:50:55.467Z,121.57
2018-11-22T16:53:23.875Z,123.73
2018-11-22T16:55:52.379Z,126.73
2018-11-22T16:58:20.917Z,122.53
2018-11-22T17:00:49.283Z,114.37
2018-11-22T17:03:17.891Z,126.10
2018-11-22T17:05:46.343Z,112.23
2018-11-22T17:08:14.684Z,128.30
2018-11-22T17:10:43.078Z,120.63
2018-11-22T17:13:11.440Z,126.27
2018-11-22T17:15:40.780Z,127.47
2018-11-22T17:18:09.214Z,124.67
2018-11-22T17:20:37.564Z,124.27
2018-11-22T17:23:06.021Z,130.97
2018-11-22T17:25:34.588Z,120.70
2018-11-22T17:28:03.778Z,134.13
2018-11-22T17:30:32.922Z,132.73
2018-11-22T17:33:01.745Z,135.43
2018-11-22T17:35:30.226Z,127.23
2018-11-22T17:37:58.569Z,127.63
2018-11-22T17:40:26.927Z,124.47
2018-11-22T17:42:55.267Z,131.37
2018-11-22T17:45:24.439Z,127.73
2018-11-22T17:47:52.920Z,135.17
2018-11-22T17:50:21.277Z,128.30
2018-11-22T17:52:49.635Z,127.90
2018-11-22T17:55:17.990Z,127.97
2018-11-22T17:57:46.363Z,127.67
2018-11-22T18:00:15.491Z,121.73
2018-11-22T18:02:43.904Z,120.70
2018-11-22T18:05:12.271Z,123.77
2018-11-22T18:07:40.726Z,122.83
2018-11-22T18:10:09.152Z,136.70
2018-11-22T18:12:37.549Z,122.63
2018-11-22T18:15:05.983Z,123.20
2018-11-22T18:17:34.388Z,126.63
2018-11-22T18:20:02.827Z,121.43
2018-11-22T18:22:31.965Z,124.90
2018-11-22T18:25:00.359Z,127.23
2018-11-22T18:27:28.739Z,119.40
2018-11-22T18:29:57.268Z,118.93
2018-11-22T18:32:25.658Z,113.43
2018-11-22T18:34:54.068Z,124.17
2018-11-22T18:37:22.557Z,123.23
2018-11-22T18:39:50.962Z,132.77
2018-11-22T18:42:19.362Z,118.63
2018-11-22T18:44:48.489Z,116.97
2018-11-22T18:47:16.863Z,108.47
2018-11-22T18:49:45.381Z,111.27
2018-11-22T18:52:14.252Z,120.47
2018-11-22T18:54:42.842Z,109.40
2018-11-22T18:57:11.409Z,114.43
2018-11-22T18:59:39.815Z,112.33
2018-11-22T19:02:08.179Z,118.53
2018-11-22T19:04:36.531Z,115.20
2018-11-22T19:07:04.892Z,114.13
2018-11-22T19:09:33.416Z,119.10
2018-11-22T19:12:01.859Z,115.57
2018-11-22T19:14:30.257Z,122.13
2018-11-22T19:16:58.600Z,125.43
2018-11-22T19:19:27.067Z,117.53
2018-11-22T19:21:55.440Z,114.90
2018-11-22T19:24:24.101Z,126.37
2018-11-22T19:26:52.453Z,117.40
2018-11-22T19:29:20.790Z,129.43
2018-11-22T19:31:49.241Z,127.50
2018-11-22T19:34:17.589Z,120.23
2018-11-22T19:36:46.332Z,127.27
2018-11-22T19:39:15.051Z,124.60
2018-11-22T19:41:43.860Z,132.40
2018-11-22T19:44:12.471Z,122.20
2018-11-22T19:46:40.829Z,120.20
2018-11-22T19:49:09.194Z,122.40
2018-11-22T19:51:37.606Z,122.47
2018-11-22T19:54:06.003Z,122.50
2018-11-22T19:56:34.357Z,119.07
2018-11-22T19:59:02.708Z,126.13
2018-11-22T20:01:31.144Z,122.63
2018-11-22T20:03:59.490Z,112.57
2018-11-22T20:06:27.852Z,122.57
2018-11-22T20:08:56.245Z,124.63
2018-11-22T20:11:24.590Z,119.97
2018-11-22T20:13:53.721Z,129.07
2018-11-22T20:16:22.100Z,124.40
2018-11-22T20:18:50.576Z,125.93
2018-11-22T20:21:18.989Z,131.20
2018-11-22T20:23:47.328Z,114.37
2018-11-22T20:26:15.697Z,124.27
2018-11-22T20:28:44.053Z,116.93
2018-11-22T20:31:12.551Z,117.43
2018-11-22T20:33:40.920Z,123.67
2018-11-22T20:36:09.357Z,135.67
2018-11-22T20:38:37.727Z,120.50
2018-11-22T20:41:06.123Z,122.47
2018-11-22T20:43:34.684Z,117.97
2018-11-22T20:46:03.501Z,126.77
2018-11-22T20:48:31.895Z,126.07
2018-11-22T20:51:00.609Z,125.43
2018-11-22T20:53:29.943Z,117.33
2018-11-22T20:55:59.884Z,124.07
2018-11-22T20:58:28.117Z,124.30
2018-11-22T21:00:56.481Z,125.40
2018-11-22T21:03:26.378Z,116.43
2018-11-22T21:05:54.825Z,120.27
2018-11-22T21:08:23.213Z,117.83
2018-11-22T21:10:51.585Z,117.57
2018-11-22T21:13:20.183Z,118.03
2018-11-22T21:15:48.569Z,122.33
2018-11-22T21:18:16.927Z,123.33
2018-11-22T21:20:45.289Z,119.03
2018-11-22T21:23:13.686Z,114.10
2018-11-22T21:25:42.047Z,128.23
2018-11-22T21:28:10.483Z,117.40
2018-11-22T21:30:39.230Z,119.87
2018-11-22T21:33:07.563Z,122.33
2018-11-22T21:35:37.917Z,125.47
2018-11-22T21:38:06.234Z,122.50
2018-11-22T21:40:34.686Z,115.30
2018-11-22T21:43:03.090Z,106.87
2018-11-22T21:45:31.473Z,110.20
2018-11-22T21:47:59.877Z,104.93
2018-11-22T21:50:28.243Z,111.80
2018-11-22T21:52:56.603Z,115.20
2018-11-22T21:55:24.975Z,106.73
2018-11-22T21:57:53.329Z,112.03
2018-11-22T22:00:21.941Z,109.43
2018-11-22T22:02:52.656Z,117.10
2018-11-22T22:05:18.798Z,115.97
2018-11-22T22:07:47.310Z,121.70
2018-11-22T22:10:15.676Z,118.60
2018-11-22T22:12:44.167Z,107.77
2018-11-22T22:15:13.995Z,108.93
2018-11-22T22:17:44.006Z,99.63
2018-11-22T22:20:13.327Z,112.43
2018-11-22T22:22:41.744Z,100.43
2018-11-22T22:25:10.133Z,110.07
2018-11-22T22:27:38.471Z,106.17
2018-11-22T22:30:06.827Z,112.83
2018-11-22T22:32:35.169Z,106.83
2018-11-22T22:35:03.898Z,101.57
2018-11-22T22:37:32.244Z,109.40
2018-11-22T22:40:03.786Z,108.47
2018-11-22T22:42:30.413Z,111.97
2018-11-22T22:44:58.870Z,108.90
2018-11-22T22:47:28.941Z,99.87
2018-11-22T22:49:57.787Z,102.80
2018-11-22T22:52:27.290Z,116.47
2018-11-22T22:54:56.529Z,118.23
2018-11-22T22:57:24.882Z,119.37
2018-11-22T22:59:53.219Z,116.10
2018-11-22T23:02:21.625Z,114.80
2018-11-22T23:04:49.999Z,103.50
2018-11-22T23:07:19.259Z,109.03
2018-11-22T23:09:47.618Z,115.97
2018-11-22T23:12:15.949Z,120.57
2018-11-22T23:14:45.088Z,123.80
2018-11-22T23:17:13.496Z,113.87
2018-11-22T23:19:41.871Z,118.37
2018-11-22T23:22:10.185Z,116.17
2018-11-22T23:24:39.428Z,124.33
2018-11-22T23:27:07.809Z,129.73
2018-11-22T23:29:36.193Z,116.13
2018-11-22T23:32:04.559Z,123.47
2018-11-22T23:34:32.943Z,113.63
2018-11-22T23:37:01.347Z,116.07
2018-11-22T23:39:29.687Z,109.73
2018-11-22T23:41:58.073Z,140.03
2018-11-22T23:44:26.439Z,110.67
2018-11-22T23:46:54.811Z,126.73
2018-11-22T23:49:23.927Z,124.53
2018-11-22T23:51:52.295Z,113.60
2018-11-22T23:54:20.671Z,116.77
2018-11-22T23:56:49.076Z,113.47
2018-11-22T23:59:17.493Z,112.47
